createdAt,value
2019-06-07T00:00:53.784Z,97566.03
2019-06-07T00:03:29.875Z,97564.45
2019-06-07T00:05:58.023Z,97568.77
2019-06-07T00:08:29.626Z,97570.84
2019-06-07T00:11:01.870Z,97568.77
2019-06-07T00:13:33.167Z,97566.16
2019-06-07T00:22:32.370Z,97560.92
2019-06-07T00:24:55.389Z,97557.98
2019-06-07T00:27:26.830Z,97555.20
2019-06-07T00:29:58.150Z,97563.88
2019-06-07T00:32:29.462Z,97555.77
2019-06-07T00:35:00.856Z,97559.33
2019-06-07T00:37:32.125Z,97554.49
2019-06-07T00:40:14.141Z,97550.86
2019-06-07T00:42:37.100Z,97558.84
2019-06-07T00:45:11.191Z,97550.72
2019-06-07T00:47:43.242Z,97556.22
2019-06-07T00:50:16.487Z,97560.46
2019-06-07T00:55:27.114Z,97552.47
2019-06-07T00:57:54.803Z,97553.66
2019-06-07T01:00:26.721Z,97555.45
2019-06-07T01:02:58.279Z,97563.45
2019-06-07T01:05:31.560Z,97556.49
2019-06-07T01:08:04.060Z,97554.44
2019-06-07T01:10:52.896Z,97559.41
2019-06-07T01:13:08.334Z,97554.34
2019-06-07T01:15:39.762Z,97556.43
2019-06-07T01:18:36.157Z,97555.73
2019-06-07T01:20:44.346Z,97553.90
2019-06-07T01:23:55.338Z,97560.69
2019-06-07T01:25:48.664Z,97557.84
2019-06-07T01:28:23.551Z,97555.49
2019-06-07T01:30:53.833Z,97553.48
2019-06-07T01:33:38.960Z,97555.48
2019-06-07T01:35:58.154Z,97555.97
2019-06-07T01:38:30.142Z,97555.15
2019-06-07T01:41:01.716Z,97557.80
2019-06-07T01:43:32.983Z,97554.20
2019-06-07T01:46:04.666Z,97555.58
2019-06-07T01:48:49.018Z,97550.34
2019-06-07T01:51:08.841Z,97550.97
2019-06-07T01:53:41.150Z,97553.14
2019-06-07T01:56:12.370Z,97557.77
2019-06-07T01:58:43.938Z,97552.03
2019-06-07T02:01:15.492Z,97558.61
2019-06-07T02:03:46.760Z,97552.09
2019-06-07T02:06:18.476Z,97553.64
2019-06-07T02:08:49.800Z,97553.73
2019-06-07T02:11:22.442Z,97551.00
2019-06-07T02:16:25.378Z,97551.25
2019-06-07T02:19:01.612Z,97556.84
2019-06-07T02:21:31.614Z,97555.72
2019-06-07T02:24:04.323Z,97557.36
2019-06-07T02:26:35.609Z,97556.23
2019-06-07T02:29:07.129Z,97558.27
2019-06-07T02:31:39.965Z,97560.62
2019-06-07T02:34:11.553Z,97552.88
2019-06-07T02:36:43.010Z,97562.94
2019-06-07T02:39:15.952Z,97565.57
2019-06-07T02:41:47.542Z,97565.52
2019-06-07T02:44:18.897Z,97558.80
2019-06-07T02:46:50.322Z,97571.23
2019-06-07T02:49:25.304Z,97565.02
2019-06-07T02:51:55.298Z,97561.48
2019-06-07T02:54:32.411Z,97559.00
2019-06-07T02:57:03.914Z,97570.88
2019-06-07T03:00:03.751Z,97566.20
2019-06-07T03:02:08.450Z,97561.02
2019-06-07T03:04:44.757Z,97560.64
2019-06-07T03:07:17.856Z,97562.53
2019-06-07T03:09:51.387Z,97560.67
2019-06-07T03:12:26.563Z,97564.72
2019-06-07T03:15:00.022Z,97562.80
2019-06-07T03:17:54.414Z,97559.58
2019-06-07T03:20:29.948Z,97559.31
2019-06-07T03:23:02.844Z,97556.23
2019-06-07T03:25:40.157Z,97554.35
2019-06-07T03:28:11.455Z,97553.98
2019-06-07T03:31:01.075Z,97566.34
2019-06-07T03:33:15.855Z,97567.81
2019-06-07T03:35:47.301Z,97576.05
2019-06-07T03:38:18.900Z,97574.43
2019-06-07T03:40:50.240Z,97571.67
2019-06-07T03:43:21.644Z,97573.34
2019-06-07T03:45:53.111Z,97572.86
2019-06-07T03:48:24.290Z,97570.50
2019-06-07T03:51:04.227Z,97575.34
2019-06-07T03:53:30.493Z,97579.50
2019-06-07T03:56:02.288Z,97577.84
2019-06-07T03:58:45.748Z,97580.52
2019-06-07T04:01:07.036Z,97577.23
2019-06-07T04:03:46.958Z,97580.36
2019-06-07T04:06:12.808Z,97586.82
2019-06-07T04:08:44.255Z,97584.20
2019-06-07T04:11:15.538Z,97593.98
2019-06-07T04:13:46.803Z,97594.92
2019-06-07T04:16:18.019Z,97599.37
2019-06-07T04:18:49.453Z,97599.52
2019-06-07T04:21:20.676Z,97605.96
2019-06-07T04:23:52.144Z,97602.95
2019-06-07T04:26:24.987Z,97596.26
2019-06-07T04:31:32.673Z,97602.66
2019-06-07T04:34:04.608Z,97604.90
2019-06-07T04:36:51.952Z,97602.90
2019-06-07T04:39:10.561Z,97600.17
2019-06-07T04:41:46.740Z,97605.31
2019-06-07T04:44:21.972Z,97605.92
2019-06-07T04:46:55.123Z,97608.70
2019-06-07T04:49:27.165Z,97608.42
2019-06-07T04:51:59.182Z,97610.52
2019-06-07T04:54:31.481Z,97607.25
2019-06-07T04:57:03.514Z,97609.48
2019-06-07T05:00:10.460Z,97608.67
2019-06-07T05:02:07.972Z,97612.23
2019-06-07T05:04:42.215Z,97610.28
2019-06-07T05:07:12.835Z,97621.00
2019-06-07T05:09:45.418Z,97612.05
2019-06-07T05:12:16.705Z,97616.97
2019-06-07T05:14:48.319Z,97612.12
2019-06-07T05:17:19.554Z,97614.92
2019-06-07T05:19:52.220Z,97615.73
2019-06-07T05:22:23.541Z,97614.33
2019-06-07T05:24:55.656Z,97619.23
2019-06-07T05:27:27.011Z,97621.89
2019-06-07T05:30:13.356Z,97618.91
2019-06-07T05:32:34.265Z,97630.59
2019-06-07T05:35:10.602Z,97625.60
2019-06-07T05:37:45.773Z,97626.08
2019-06-07T05:40:21.414Z,97630.50
2019-06-07T05:42:54.051Z,97641.34
2019-06-07T05:45:29.810Z,97640.52
2019-06-07T05:48:02.697Z,97634.20
2019-06-07T05:50:44.934Z,97632.94
2019-06-07T05:53:09.550Z,97638.16
2019-06-07T05:55:46.864Z,97642.69
2019-06-07T05:58:16.302Z,97634.62
2019-06-07T06:00:48.705Z,97639.67
2019-06-07T06:03:22.447Z,97638.83
2019-06-07T06:05:55.831Z,97643.09
2019-06-07T06:08:28.028Z,97641.42
2019-06-07T06:10:59.371Z,97641.07
2019-06-07T06:13:30.812Z,97643.30
2019-06-07T06:16:03.950Z,97640.63
2019-06-07T06:18:35.662Z,97646.91
2019-06-07T06:21:18.499Z,97648.48
2019-06-07T06:23:43.350Z,97649.64
2019-06-07T06:26:15.322Z,97650.23
2019-06-07T06:28:49.448Z,97648.03
2019-06-07T06:31:20.359Z,97649.14
2019-06-07T06:33:55.745Z,97647.02
2019-06-07T06:36:28.052Z,97639.33
2019-06-07T06:38:59.433Z,97640.80
2019-06-07T06:41:31.013Z,97650.70
2019-06-07T06:44:02.454Z,97661.64
2019-06-07T06:46:41.076Z,97647.08
2019-06-07T06:51:53.812Z,97651.33
2019-06-07T06:54:40.284Z,97653.97
2019-06-07T06:57:19.130Z,97655.32
2019-06-07T06:59:39.087Z,97659.92
2019-06-07T07:02:09.416Z,97656.38
2019-06-07T07:04:43.591Z,97655.72
2019-06-07T07:07:15.863Z,97657.77
2019-06-07T07:09:59.083Z,97658.50
2019-06-07T07:12:25.953Z,97657.62
2019-06-07T07:14:59.404Z,97665.81
2019-06-07T07:17:47.617Z,97660.47
2019-06-07T07:20:07.016Z,97663.59
2019-06-07T07:22:38.828Z,97662.38
2019-06-07T07:25:14.606Z,97667.75
2019-06-07T07:27:47.265Z,97663.27
2019-06-07T07:30:36.899Z,97662.20
2019-06-07T07:33:06.569Z,97663.43
2019-06-07T07:35:38.735Z,97668.86
2019-06-07T07:38:10.599Z,97665.05
2019-06-07T07:41:01.841Z,97666.77
2019-06-07T07:43:15.115Z,97662.23
2019-06-07T07:45:53.141Z,97666.18
2019-06-07T07:48:20.367Z,97672.66
2019-06-07T07:51:00.035Z,97672.30
2019-06-07T07:53:45.384Z,97675.38
2019-06-07T07:56:00.582Z,97673.23
2019-06-07T07:58:32.263Z,97676.19
2019-06-07T08:01:10.091Z,97671.20
2019-06-07T08:03:38.098Z,97661.21
2019-06-07T08:06:10.115Z,97675.11
2019-06-07T08:08:42.084Z,97666.30
2019-06-07T08:11:13.521Z,97666.57
2019-06-07T08:13:48.014Z,97675.13
2019-06-07T08:16:20.074Z,97676.64
2019-06-07T08:18:56.019Z,97673.92
2019-06-07T08:21:26.947Z,97680.53
2019-06-07T08:24:03.586Z,97681.28
2019-06-07T08:26:33.795Z,97681.34
2019-06-07T08:29:08.171Z,97683.97
2019-06-07T08:31:40.045Z,97686.61
2019-06-07T08:34:13.061Z,97684.70
2019-06-07T08:36:45.071Z,97679.75
2019-06-07T08:39:16.866Z,97688.08
2019-06-07T08:41:59.363Z,97692.48
2019-06-07T08:44:25.363Z,97703.41
2019-06-07T08:47:16.064Z,97699.20
2019-06-07T08:49:29.465Z,97700.56
2019-06-07T08:52:10.504Z,97707.98
2019-06-07T08:54:34.906Z,97706.11
2019-06-07T08:57:19.984Z,97699.30
2019-06-07T08:59:39.469Z,97700.50
2019-06-07T09:02:23.375Z,97694.75
2019-06-07T09:04:44.793Z,97699.03
2019-06-07T09:07:19.866Z,97702.56
2019-06-07T09:09:50.834Z,97691.17
2019-06-07T09:12:25.385Z,97694.69
2019-06-07T09:15:12.052Z,97697.04
2019-06-07T09:17:31.103Z,97690.65
2019-06-07T09:20:09.478Z,97696.22
2019-06-07T09:22:36.350Z,97698.09
2019-06-07T09:25:20.175Z,97699.14
2019-06-07T09:27:43.042Z,97696.11
2019-06-07T09:30:19.556Z,97704.11
2019-06-07T09:32:51.312Z,97705.18
2019-06-07T09:35:24.506Z,97703.10
2019-06-07T09:38:07.392Z,97705.56
2019-06-07T09:55:22.950Z,97698.34
2019-06-07T10:00:48.852Z,97702.58
2019-06-07T10:03:22.780Z,97694.69
2019-06-07T10:11:43.194Z,97703.88
2019-06-07T10:14:20.480Z,97696.17
2019-06-07T10:16:53.843Z,97697.56
2019-06-07T10:22:29.911Z,97697.95
2019-06-07T10:27:54.773Z,97685.56
2019-06-07T10:30:26.887Z,97686.09
2019-06-07T10:32:59.984Z,97677.33
2019-06-07T10:35:35.140Z,97681.97
2019-06-07T10:38:07.185Z,97672.71
2019-06-07T10:40:39.464Z,97667.33
2019-06-07T10:43:14.421Z,97670.35
2019-06-07T10:45:51.283Z,97677.02
2019-06-07T10:54:26.977Z,97663.64
2019-06-07T10:56:50.657Z,97657.33
2019-06-07T10:59:24.136Z,97656.27
2019-06-07T11:01:57.711Z,97652.69
2019-06-07T11:04:29.653Z,97653.68
2019-06-07T11:07:01.486Z,97657.98
2019-06-07T11:09:33.608Z,97652.02
2019-06-07T11:12:08.415Z,97651.45
2019-06-07T11:14:41.373Z,97653.78
2019-06-07T11:17:15.670Z,97645.82
2019-06-07T11:19:47.949Z,97638.23
2019-06-07T11:22:23.241Z,97646.53
2019-06-07T11:24:55.433Z,97645.30
2019-06-07T11:27:27.450Z,97647.16
2019-06-07T11:29:59.375Z,97636.16
2019-06-07T11:32:32.652Z,97631.59
2019-06-07T11:35:08.756Z,97638.90
2019-06-07T11:37:40.871Z,97636.06
2019-06-07T11:40:32.060Z,97641.22
2019-06-07T11:45:37.058Z,97644.20
2019-06-07T11:48:09.152Z,97639.41
2019-06-07T11:50:42.192Z,97644.86
2019-06-07T11:53:19.792Z,97638.44
2019-06-07T11:59:00.496Z,97646.76
2019-06-07T12:33:35.572Z,97618.39
2019-06-07T12:36:07.613Z,97636.27
2019-06-07T12:38:39.485Z,97626.30
2019-06-07T12:41:11.996Z,97627.80
2019-06-07T12:43:44.276Z,97631.84
2019-06-07T12:46:23.114Z,97631.13
2019-06-07T12:52:22.851Z,97636.22
2019-06-07T12:54:59.545Z,97637.08
2019-06-07T12:57:33.136Z,97640.94
2019-06-07T13:00:10.496Z,97641.38
2019-06-07T13:02:45.834Z,97648.00
2019-06-07T13:05:19.955Z,97640.45
2019-06-07T13:07:52.131Z,97642.41
2019-06-07T13:10:24.129Z,97646.42
2019-06-07T13:12:56.066Z,97645.52
2019-06-07T13:15:28.343Z,97638.30
2019-06-07T13:18:00.611Z,97641.59
2019-06-07T13:20:34.690Z,97632.92
2019-06-07T13:23:06.515Z,97636.95
2019-06-07T13:25:46.256Z,97637.48
2019-06-07T13:28:14.220Z,97636.17
2019-06-07T13:30:46.060Z,97634.80
2019-06-07T13:33:18.906Z,97626.91
2019-06-07T13:35:51.768Z,97627.21
2019-06-07T13:38:26.929Z,97629.26
2019-06-07T13:40:58.719Z,97622.44
2019-06-07T13:43:30.658Z,97635.30
2019-06-07T13:46:03.486Z,97631.92
2019-06-07T13:48:35.394Z,97638.56
2019-06-07T13:51:07.202Z,97633.50
2019-06-07T13:53:39.062Z,97635.59
2019-06-07T13:56:10.926Z,97630.59
2019-06-07T13:58:42.886Z,97631.84
2019-06-07T14:01:14.672Z,97632.92
2019-06-07T14:03:46.554Z,97633.58
2019-06-07T14:06:18.972Z,97637.00
2019-06-07T14:08:50.912Z,97653.84
2019-06-07T14:11:23.618Z,97658.26
2019-06-07T14:13:55.596Z,97651.60
2019-06-07T14:16:28.363Z,97648.70
2019-06-07T14:19:00.196Z,97642.75
2019-06-07T14:21:32.015Z,97654.63
2019-06-07T14:24:03.779Z,97657.95
2019-06-07T14:26:35.637Z,97659.42
2019-06-07T14:29:07.730Z,97650.64
2019-06-07T14:31:39.556Z,97647.25
2019-06-07T14:34:11.425Z,97660.52
2019-06-07T14:36:43.289Z,97664.03
2019-06-07T14:39:15.303Z,97668.03
2019-06-07T14:41:47.242Z,97668.80
2019-06-07T14:44:19.204Z,97661.36
2019-06-07T14:46:51.016Z,97661.72
2019-06-07T14:49:24.207Z,97664.95
2019-06-07T14:51:56.309Z,97633.80
2019-06-07T14:54:31.714Z,97640.76
2019-06-07T14:57:03.504Z,97627.66
2019-06-07T14:59:35.644Z,97632.38
2019-06-07T15:02:07.681Z,97632.78
2019-06-07T15:04:43.192Z,97618.50
2019-06-07T15:07:15.111Z,97631.03
2019-06-07T15:09:46.443Z,97621.30
2019-06-07T15:12:24.998Z,97612.02
2019-06-07T15:14:51.963Z,97621.48
2019-06-07T15:17:24.072Z,97632.07
2019-06-07T15:19:56.407Z,97659.34
2019-06-07T15:22:28.235Z,97670.05
2019-06-07T15:25:02.392Z,97680.77
2019-06-07T15:27:35.339Z,97681.86
2019-06-07T15:30:12.914Z,97676.24
2019-06-07T15:32:44.691Z,97684.48
2019-06-07T15:35:16.899Z,97687.99
2019-06-07T15:37:48.705Z,97676.95
2019-06-07T15:40:21.101Z,97678.61
2019-06-07T15:42:53.457Z,97684.60
2019-06-07T15:45:25.544Z,97684.02
2019-06-07T15:47:58.139Z,97698.55
2019-06-07T15:50:32.202Z,97690.20
2019-06-07T15:53:04.067Z,97679.92
2019-06-07T15:55:39.520Z,97673.98
2019-06-07T15:58:09.412Z,97680.90
2019-06-07T16:00:42.659Z,97680.41
2019-06-07T16:03:15.263Z,97669.73
2019-06-07T16:05:47.103Z,97642.08
2019-06-07T16:08:18.932Z,97629.96
2019-06-07T16:10:50.214Z,97641.48
2019-06-07T16:13:22.023Z,97654.16
2019-06-07T16:15:53.366Z,97676.91
2019-06-07T16:18:24.546Z,97693.70
2019-06-07T16:20:55.752Z,97714.36
2019-06-07T16:23:27.504Z,97707.73
2019-06-07T16:25:58.736Z,97667.67
2019-06-07T16:28:29.985Z,97647.89
2019-06-07T16:31:01.875Z,97617.16
2019-06-07T16:33:33.252Z,97609.11
2019-06-07T16:42:45.060Z,97656.64
2019-06-07T16:48:30.583Z,97654.73
2019-06-07T16:51:01.996Z,97662.88
2019-06-07T16:53:33.981Z,97663.28
2019-06-07T16:56:06.128Z,97658.58
2019-06-07T16:59:13.505Z,97648.75
2019-06-07T17:01:56.416Z,97642.72
2019-06-07T17:04:30.248Z,97667.98
2019-06-07T17:07:01.500Z,97684.52
2019-06-07T17:09:33.763Z,97692.56
2019-06-07T17:12:05.513Z,97694.03
2019-06-07T17:14:36.883Z,97698.80
2019-06-07T17:17:08.161Z,97688.25
2019-06-07T17:19:40.777Z,97674.99
2019-06-07T17:22:25.893Z,97653.63
2019-06-07T17:24:58.647Z,97656.66
2019-06-07T17:27:32.431Z,97668.81
2019-06-07T17:33:35.643Z,97688.14
2019-06-07T17:36:06.957Z,97661.38
2019-06-07T17:49:41.745Z,97643.10
2019-06-07T17:52:13.608Z,97632.41
2019-06-07T17:58:22.802Z,97633.15
2019-06-07T18:08:10.550Z,97646.78
2019-06-07T18:14:14.480Z,97664.70
2019-06-07T18:16:46.721Z,97668.97
2019-06-07T18:19:18.586Z,97662.88
2019-06-07T18:21:55.425Z,97669.16
2019-06-07T18:24:24.022Z,97661.36
2019-06-07T18:26:55.956Z,97676.44
2019-06-07T18:29:27.911Z,97680.92
2019-06-07T18:32:00.343Z,97685.86
2019-06-07T18:34:32.418Z,97678.89
2019-06-07T18:37:04.257Z,97679.26
2019-06-07T18:39:37.679Z,97681.52
2019-06-07T18:42:09.457Z,97681.63
2019-06-07T18:44:41.493Z,97676.27
2019-06-07T18:47:13.367Z,97688.83
2019-06-07T18:49:53.556Z,97677.83
2019-06-07T18:52:27.031Z,97690.63
2019-06-07T18:55:05.505Z,97672.45
2019-06-07T18:57:36.776Z,97676.50
2019-06-07T19:00:12.713Z,97678.39
2019-06-07T19:02:44.738Z,97618.41
2019-06-07T19:05:16.943Z,97632.98
2019-06-07T19:07:48.866Z,97683.58
2019-06-07T19:10:21.508Z,97691.09
2019-06-07T19:12:53.269Z,97682.57
2019-06-07T19:15:27.816Z,97672.47
2019-06-07T19:18:02.752Z,97686.39
2019-06-07T19:20:35.477Z,97689.61
2019-06-07T19:23:07.311Z,97671.58
2019-06-07T19:25:40.619Z,97673.82
2019-06-07T19:28:15.587Z,97673.36
2019-06-07T19:30:48.873Z,97695.12
2019-06-07T19:33:20.619Z,97701.06
2019-06-07T19:35:57.444Z,97709.01
2019-06-07T19:38:35.425Z,97710.61
2019-06-07T19:41:19.247Z,97716.42
2019-06-07T19:43:44.293Z,97721.80
2019-06-07T19:46:16.287Z,97723.84
2019-06-07T19:48:49.555Z,97729.42
2019-06-07T19:51:20.904Z,97748.81
2019-06-07T19:53:52.962Z,97755.54
2019-06-07T19:56:26.384Z,97758.33
2019-06-07T19:58:57.741Z,97758.46
2019-06-07T20:01:30.621Z,97765.75
2019-06-07T20:04:02.552Z,97769.78
2019-06-07T20:06:33.902Z,97768.20
2019-06-07T20:12:10.868Z,97789.41
2019-06-07T20:14:42.148Z,97788.52
2019-06-07T20:17:14.084Z,97786.59
2019-06-07T20:19:45.527Z,97786.44
2019-06-07T20:22:17.416Z,97788.90
2019-06-07T20:24:52.103Z,97785.56
2019-06-07T20:27:25.775Z,97800.21
2019-06-07T20:33:27.278Z,97803.64
2019-06-07T20:36:00.722Z,97809.60
2019-06-07T20:38:34.965Z,97805.73
2019-06-07T20:41:07.756Z,97809.71
2019-06-07T20:43:40.775Z,97808.16
2019-06-07T20:46:12.159Z,97802.79
2019-06-07T20:48:43.780Z,97800.49
2019-06-07T20:51:21.459Z,97806.49
2019-06-07T20:53:54.033Z,97811.28
2019-06-07T20:56:29.010Z,97819.23
2019-06-07T20:59:12.416Z,97822.04
2019-06-07T21:01:46.493Z,97828.37
2019-06-07T21:07:46.885Z,97805.95
2019-06-07T21:17:06.717Z,97792.13
2019-06-07T21:19:47.504Z,97810.02
2019-06-07T21:22:19.575Z,97802.25
2019-06-07T21:24:53.581Z,97818.24
2019-06-07T21:27:35.933Z,97820.45
2019-06-07T21:30:17.733Z,97818.84
2019-06-07T21:32:50.392Z,97807.42
2019-06-07T21:35:21.979Z,97804.55
2019-06-07T21:37:53.265Z,97805.19
2019-06-07T21:40:24.534Z,97792.78
2019-06-07T21:42:55.960Z,97800.37
2019-06-07T21:45:28.338Z,97795.19
2019-06-07T21:47:59.642Z,97801.03
2019-06-07T21:50:30.918Z,97796.45
2019-06-07T21:53:04.491Z,97782.83
2019-06-07T21:55:35.923Z,97794.91
2019-06-07T21:58:07.280Z,97786.18
2019-06-07T22:00:57.747Z,97787.09
2019-06-07T22:03:29.073Z,97787.97
2019-06-07T22:06:00.289Z,97777.98
2019-06-07T22:08:33.774Z,97777.11
2019-06-07T22:11:06.071Z,97770.44
2019-06-07T22:13:37.532Z,97779.16
2019-06-07T22:16:25.627Z,97777.55
2019-06-07T22:18:42.645Z,97773.48
2019-06-07T22:21:14.776Z,97787.91
2019-06-07T22:23:46.027Z,97785.51
2019-06-07T22:26:17.347Z,97798.31
2019-06-07T22:28:48.618Z,97784.44
2019-06-07T22:31:20.023Z,97791.41
2019-06-07T22:33:51.305Z,97788.45
2019-06-07T22:36:33.192Z,97791.16
2019-06-07T22:39:07.831Z,97788.38
2019-06-07T22:41:39.251Z,97787.75
2019-06-07T22:44:13.137Z,97789.41
2019-06-07T22:47:12.169Z,97788.16
2019-06-07T22:49:43.516Z,97786.38
2019-06-07T22:52:30.988Z,97780.27
2019-06-07T22:55:10.074Z,97778.89
2019-06-07T22:58:03.746Z,97777.98
2019-06-07T23:00:36.598Z,97775.61
2019-06-07T23:03:08.531Z,97777.83
2019-06-07T23:05:39.787Z,97777.98
2019-06-07T23:08:11.147Z,97779.55
2019-06-07T23:10:44.575Z,97783.82
2019-06-07T23:13:15.909Z,97780.02
2019-06-07T23:15:55.077Z,97787.61
2019-06-07T23:18:26.393Z,97784.37
2019-06-07T23:20:57.909Z,97784.17
2019-06-07T23:23:29.351Z,97778.84
2019-06-07T23:26:03.266Z,97786.98
2019-06-07T23:28:34.539Z,97779.87
2019-06-07T23:31:05.892Z,97777.15
2019-06-07T23:33:37.302Z,97781.13
2019-06-07T23:36:08.564Z,97780.63
2019-06-07T23:38:41.805Z,97787.26
2019-06-07T23:41:13.581Z,97790.69
2019-06-07T23:43:44.973Z,97771.06
2019-06-07T23:46:17.365Z,97777.38
2019-06-07T23:48:50.474Z,97782.79
2019-06-07T23:51:22.729Z,97787.33
2019-06-07T23:53:54.026Z,97777.03
2019-06-07T23:56:25.214Z,97769.38
2019-06-07T23:58:56.520Z,97778.22
